Time;durP1;ratioP1;P1;durP2;ratioP2;P2;SDS_P1;SDS_P2;PMS_P1;PMS_P2;Temp;Humidity;BMP_temperature;BMP_pressure;BME280_temperature;BME280_humidity;BME280_pressure;Samples;Min_cycle;Max_cycle;Signal;HPM_P1;HPM_P2
2022/05/08 00:01:20;;;;;;;17.25;6.83;;;;;;;12.50;46.31;101840.33;1720129;83;26075;-57
2022/05/08 00:03:47;;;;;;;11.18;6.62;;;;;;;12.48;46.35;101839.11;1741603;82;27492;-57
2022/05/08 00:06:14;;;;;;;18.80;6.83;;;;;;;12.47;46.42;101836.05;1741605;82;25657;-57
2022/05/08 00:08:40;;;;;;;20.65;6.22;;;;;;;12.42;46.85;101832.84;1741629;82;25645;-57
2022/05/08 00:11:09;;;;;;;8.63;4.60;;;;;;;12.39;46.68;101833.58;1741811;82;25961;-57
2022/05/08 00:13:36;;;;;;;12.45;4.40;;;;;;;12.39;47.03;101838.97;1742077;82;26132;-57
2022/05/08 00:16:05;;;;;;;13.13;3.95;;;;;;;12.35;46.70;101832.48;1741927;81;27311;-57
2022/05/08 00:18:32;;;;;;;9.30;3.60;;;;;;;12.35;46.86;101834.31;1741653;82;43887;-57
2022/05/08 00:20:59;;;;;;;6.08;3.02;;;;;;;12.32;46.67;101836.77;1741880;82;25787;-57
2022/05/08 00:23:26;;;;;;;8.38;2.80;;;;;;;12.29;46.73;101839.70;1741855;82;25774;-57
2022/05/08 00:25:53;;;;;;;11.80;3.10;;;;;;;12.26;46.75;101834.56;1741755;81;25765;-57
2022/05/08 00:28:20;;;;;;;5.30;3.02;;;;;;;12.19;47.08;101835.53;1719534;83;27530;-58
2022/05/08 00:30:47;;;;;;;9.73;2.90;;;;;;;12.13;46.86;101838.72;1721083;83;25542;-57
2022/05/08 00:33:14;;;;;;;8.55;3.33;;;;;;;12.08;47.43;101831.97;1732490;82;25721;-57
2022/05/08 00:35:41;;;;;;;12.37;2.62;;;;;;;12.02;47.39;101832.80;1716692;82;25966;-57
2022/05/08 00:38:08;;;;;;;9.95;3.40;;;;;;;11.97;47.38;101832.78;1715124;83;25504;-57
2022/05/08 00:40:37;;;;;;;9.00;2.45;;;;;;;11.92;47.53;101837.65;1711692;83;27515;-57
2022/05/08 00:43:28;;;;;;;9.23;2.77;;;;;;;11.83;47.26;101836.03;1711528;83;25737;-57
2022/05/08 00:45:56;;;;;;;10.00;2.40;;;;;;;11.77;47.36;101836.52;1711484;83;25774;-57
2022/05/08 00:48:23;;;;;;;14.68;3.08;;;;;;;11.70;47.69;101833.42;1711793;83;26693;-57
2022/05/08 00:50:52;;;;;;;18.65;2.87;;;;;;;11.63;47.80;101836.23;1718846;82;25480;-57
2022/05/08 00:53:20;;;;;;;8.60;2.83;;;;;;;11.57;47.87;101840.71;1721685;83;28389;-57
2022/05/08 00:55:48;;;;;;;14.95;2.33;;;;;;;11.53;48.00;101836.55;1721726;83;25500;-57
2022/05/08 00:58:16;;;;;;;8.00;2.65;;;;;;;11.49;48.02;101837.27;1721751;83;25847;-57
2022/05/08 01:00:43;;;;;;;6.47;2.90;;;;;;;11.45;48.27;101837.63;1720278;83;25702;-57
2022/05/08 01:03:16;;;;;;;11.95;2.77;;;;;;;11.39;48.34;101835.74;1667473;85;25943;-56
2022/05/08 01:05:43;;;;;;;7.50;2.77;;;;;;;11.36;48.29;101825.22;1666164;85;27466;-57
2022/05/08 01:08:13;;;;;;;11.38;2.98;;;;;;;11.33;48.18;101828.63;1667390;85;25932;-57
2022/05/08 01:10:40;;;;;;;4.80;2.25;;;;;;;11.29;48.18;101833.39;1667356;85;25825;-57
2022/05/08 01:13:07;;;;;;;3.35;2.37;;;;;;;11.24;48.17;101828.35;1667440;86;25809;-57
2022/05/08 01:15:44;;;;;;;9.83;3.20;;;;;;;11.20;48.43;101826.00;1667499;85;26205;-57
2022/05/08 01:18:13;;;;;;;7.17;3.08;;;;;;;11.17;48.36;101830.26;1667379;86;27497;-57
2022/05/08 01:20:42;;;;;;;7.30;2.22;;;;;;;11.12;48.39;101827.41;1667477;85;25725;-57
2022/05/08 01:23:11;;;;;;;7.58;3.27;;;;;;;11.09;48.49;101828.12;1696960;84;25759;-56
2022/05/08 01:25:49;;;;;;;6.67;2.55;;;;;;;11.03;48.59;101823.20;1679771;85;25781;-57
2022/05/08 01:28:17;;;;;;;7.78;2.67;;;;;;;10.96;48.74;101820.97;1679531;85;25857;-57
2022/05/08 01:30:46;;;;;;;5.87;3.00;;;;;;;10.93;48.75;101824.38;1679893;85;27618;-57
2022/05/08 01:33:15;;;;;;;5.90;2.40;;;;;;;10.88;48.81;101826.53;1686696;83;25694;-57
2022/05/08 01:35:42;;;;;;;8.35;2.22;;;;;;;10.84;48.84;101824.55;1689834;84;25773;-57
2022/05/08 01:38:13;;;;;;;9.13;2.72;;;;;;;10.78;49.09;101827.70;1689664;84;26423;-57
2022/05/08 01:40:41;;;;;;;6.78;2.42;;;;;;;10.71;49.16;101830.47;1685969;84;25753;-57
2022/05/08 01:43:10;;;;;;;5.70;2.47;;;;;;;10.64;49.58;101824.16;1686133;85;27486;-57
2022/05/08 01:45:38;;;;;;;5.00;2.30;;;;;;;10.58;49.38;101830.49;1686229;85;25797;-57
2022/05/08 01:48:22;;;;;;;16.12;2.85;;;;;;;10.51;49.70;101827.38;1686190;85;25860;-57
2022/05/08 01:50:54;;;;;;;14.93;2.92;;;;;;;10.46;49.59;101832.20;1686521;85;26432;-57
2022/05/08 01:53:25;;;;;;;10.72;2.72;;;;;;;10.41;49.49;101822.27;1686116;84;25713;-57
2022/05/08 01:55:56;;;;;;;9.80;2.90;;;;;;;10.38;49.86;101825.17;1723771;82;27436;-57
2022/05/08 01:58:26;;;;;;;11.73;5.97;;;;;;;10.32;50.12;101826.43;1723706;83;25625;-57
2022/05/08 02:00:55;;;;;;;6.37;2.98;;;;;;;10.29;50.06;101825.32;1723849;82;25678;-57
2022/05/08 02:03:23;;;;;;;7.72;2.90;;;;;;;10.26;50.00;101832.25;1723643;83;25954;-56
2022/05/08 02:05:52;;;;;;;5.25;2.72;;;;;;;10.19;50.38;101827.78;1723999;81;25712;-56
2022/05/08 02:08:19;;;;;;;5.87;2.95;;;;;;;10.13;50.43;101829.06;1723655;83;28176;-56
2022/05/08 02:10:48;;;;;;;6.90;2.15;;;;;;;10.08;50.49;101829.88;1723479;83;26411;-56
2022/05/08 02:13:14;;;;;;;10.88;2.70;;;;;;;10.01;50.49;101829.44;1723420;82;25668;-57
2022/05/08 02:15:42;;;;;;;15.25;2.75;;;;;;;9.98;50.50;101828.33;1723632;81;26669;-56
2022/05/08 02:18:11;;;;;;;12.45;2.72;;;;;;;9.97;50.64;101831.11;1723666;82;25709;-56
2022/05/08 02:20:42;;;;;;;8.10;2.12;;;;;;;9.95;51.12;101834.41;1723661;81;27471;-56
2022/05/08 02:23:10;;;;;;;16.55;3.25;;;;;;;9.89;50.95;101833.47;1723379;82;25801;-56
2022/05/08 02:25:38;;;;;;;5.80;2.58;;;;;;;9.85;50.86;101834.16;1723689;82;25892;-57
2022/05/08 02:28:06;;;;;;;12.80;2.85;;;;;;;9.82;51.40;101835.23;1723612;82;25451;-56
2022/05/08 02:30:32;;;;;;;14.43;3.58;;;;;;;9.81;51.27;101838.89;1723741;82;25464;-56
2022/05/08 02:33:00;;;;;;;13.32;3.20;;;;;;;9.80;51.23;101836.31;1723469;82;27475;-56
2022/05/08 02:35:27;;;;;;;22.60;3.27;;;;;;;9.76;52.38;101845.54;1723185;83;25972;-56
2022/05/08 02:37:56;;;;;;;6.37;3.00;;;;;;;9.68;52.27;101843.39;1723457;83;25475;-56
2022/05/08 02:40:24;;;;;;;10.93;3.25;;;;;;;9.64;51.99;101848.58;1728409;81;25780;-57
2022/05/08 02:42:53;;;;;;;11.88;3.02;;;;;;;9.63;51.93;101849.55;1732936;82;25436;-57
2022/05/08 02:45:22;;;;;;;6.90;3.37;;;;;;;9.66;51.72;101851.53;1732931;82;26906;-56
2022/05/08 02:47:49;;;;;;;10.05;2.95;;;;;;;9.69;51.91;101853.15;1732977;82;25872;-57
2022/05/08 02:50:16;;;;;;;12.98;2.45;;;;;;;9.70;51.69;101854.41;1732607;82;25461;-56
2022/05/08 02:52:43;;;;;;;13.65;3.50;;;;;;;9.76;51.77;101860.31;1732471;82;25812;-56
2022/05/08 03:00:46;;;;;;;9.85;2.90;;;;;;;9.85;52.08;101844.91;1732494;82;25678;-56
2022/05/08 03:03:22;;;;;;;9.55;2.37;;;;;;;9.90;52.21;101845.94;1732631;82;25756;-57
2022/05/08 03:05:48;;;;;;;6.12;2.60;;;;;;;9.94;52.21;101843.44;1740606;80;27963;-57
2022/05/08 03:08:17;;;;;;;6.67;2.80;;;;;;;10.02;52.13;101849.14;1741279;81;25690;-56
2022/05/08 03:13:39;;;;;;;15.25;3.00;;;;;;;10.12;52.20;101843.51;1741229;82;25638;-57
2022/05/08 03:16:09;;;;;;;10.05;2.90;;;;;;;10.17;52.44;101851.25;1741362;82;25729;-57
2022/05/08 03:18:41;;;;;;;11.70;2.80;;;;;;;10.22;52.39;101856.31;1741831;82;26410;-57
2022/05/08 03:21:09;;;;;;;5.78;2.72;;;;;;;10.26;52.42;101860.02;1741773;82;25666;-57
2022/05/08 03:23:40;;;;;;;5.05;2.42;;;;;;;10.32;52.46;101864.08;1741472;82;27468;-57
2022/05/08 03:26:08;;;;;;;8.28;2.60;;;;;;;10.39;52.40;101865.43;1741629;82;25931;-57
2022/05/08 03:28:38;;;;;;;11.00;2.60;;;;;;;10.47;52.59;101863.52;1741796;82;25766;-57
2022/05/08 03:31:06;;;;;;;5.58;2.60;;;;;;;10.51;52.31;101865.51;1741705;82;25761;-56
2022/05/08 03:33:35;;;;;;;13.90;2.87;;;;;;;10.53;52.49;101863.11;1734522;82;25757;-57
2022/05/08 03:36:03;;;;;;;6.90;2.27;;;;;;;10.57;52.61;101864.59;1733297;82;27441;-57
2022/05/08 03:38:30;;;;;;;5.65;2.40;;;;;;;10.61;52.43;101873.31;1732922;82;25760;-57
2022/05/08 03:40:57;;;;;;;15.13;2.80;;;;;;;10.65;52.27;101872.98;1738115;82;25756;-57
2022/05/08 03:43:24;;;;;;;5.72;2.60;;;;;;;10.73;52.43;101874.25;1741044;81;25815;-57
2022/05/08 03:45:51;;;;;;;8.80;2.72;;;;;;;10.79;52.22;101876.52;1741441;81;25834;-57
2022/05/08 03:48:20;;;;;;;8.30;2.87;;;;;;;10.84;51.84;101877.54;1740942;81;27726;-56
2022/05/08 03:50:46;;;;;;;11.73;3.67;;;;;;;10.89;51.76;101877.55;1734181;82;25796;-57
2022/05/08 03:53:14;;;;;;;9.73;2.65;;;;;;;10.94;51.28;101875.41;1730796;81;25746;-56
2022/05/08 03:55:41;;;;;;;19.60;2.98;;;;;;;10.97;50.75;101874.31;1730855;82;26373;-56
2022/05/08 03:58:07;;;;;;;11.60;2.77;;;;;;;11.03;50.60;101870.32;1730781;82;25749;-57
2022/05/08 04:00:34;;;;;;;7.42;2.72;;;;;;;11.09;50.32;101876.59;1730826;82;27441;-56
2022/05/08 04:03:01;;;;;;;16.77;3.65;;;;;;;11.14;50.10;101887.03;1738033;81;25732;-56
2022/05/08 04:05:29;;;;;;;9.35;2.70;;;;;;;11.19;50.00;101878.98;1738015;82;25696;-56
2022/05/08 04:07:56;;;;;;;11.97;2.75;;;;;;;11.21;49.88;101884.25;1738059;82;25807;-56
2022/05/08 04:10:23;;;;;;;11.00;3.22;;;;;;;11.19;49.93;101885.72;1738114;82;25728;-57
2022/05/08 04:12:49;;;;;;;12.60;4.08;;;;;;;11.19;49.91;101883.03;1738143;81;27532;-56
2022/05/08 04:18:02;;;;;;;23.83;4.53;;;;;;;11.30;49.89;101873.30;1738039;82;25644;-56
2022/05/08 04:20:29;;;;;;;14.43;4.00;;;;;;;11.36;49.82;101883.61;1738305;82;25784;-56
2022/05/08 04:25:42;;;;;;;19.50;4.40;;;;;;;11.48;49.69;101884.52;1738045;81;29642;-57
2022/05/08 04:28:08;;;;;;;13.00;3.62;;;;;;;11.44;49.41;101897.37;1738034;82;25733;-57
2022/05/08 04:30:36;;;;;;;11.35;2.72;;;;;;;11.46;49.38;101893.23;1738222;82;25741;-57
2022/05/08 04:33:03;;;;;;;13.43;3.45;;;;;;;11.49;49.46;101896.55;1736560;82;25797;-56
2022/05/08 04:35:31;;;;;;;11.65;3.52;;;;;;;11.55;49.51;101892.05;1735511;82;25456;-56
2022/05/08 04:37:57;;;;;;;15.78;3.75;;;;;;;11.62;49.37;101892.92;1735464;82;28313;-56
2022/05/08 04:40:25;;;;;;;17.55;3.22;;;;;;;11.65;49.23;101893.58;1742304;81;25712;-56
2022/05/08 04:42:52;;;;;;;13.75;3.25;;;;;;;11.71;49.15;101893.58;1762566;81;25675;-57
2022/05/08 04:45:19;;;;;;;13.98;3.22;;;;;;;11.79;49.08;101895.20;1762431;81;25876;-56
2022/05/08 04:47:46;;;;;;;14.68;3.30;;;;;;;11.85;48.94;101896.58;1762554;81;25477;-57
2022/05/08 04:50:13;;;;;;;10.20;2.70;;;;;;;11.86;48.95;101902.34;1778177;79;28422;-56
2022/05/08 04:52:40;;;;;;;9.28;2.85;;;;;;;11.89;48.90;101911.55;1797203;79;25781;-56
2022/05/08 04:55:09;;;;;;;15.85;3.40;;;;;;;11.97;48.81;101910.51;1797862;79;25680;-57
2022/05/08 04:57:36;;;;;;;14.23;3.55;;;;;;;12.07;48.51;101909.30;1797531;79;26453;-57
2022/05/08 05:00:05;;;;;;;13.18;2.98;;;;;;;12.12;48.33;101904.91;1797325;79;25757;-57
2022/05/08 05:02:33;;;;;;;12.23;2.65;;;;;;;12.17;48.19;101906.77;1765786;79;28274;-57
2022/05/08 05:05:00;;;;;;;14.45;2.45;;;;;;;12.16;47.96;101907.24;1757488;81;25925;-57
2022/05/08 05:07:28;;;;;;;5.47;2.37;;;;;;;12.20;47.89;101917.30;1757020;81;25720;-57
2022/05/08 05:09:54;;;;;;;22.70;2.50;;;;;;;12.24;47.61;101909.86;1757576;81;26822;-57
2022/05/08 05:12:21;;;;;;;4.72;2.35;;;;;;;12.28;47.44;101912.67;1757253;81;25724;-57
2022/05/08 05:14:49;;;;;;;12.03;2.80;;;;;;;12.31;47.50;101916.49;1757589;81;27437;-57
2022/05/08 05:17:15;;;;;;;10.82;2.40;;;;;;;12.37;47.42;101917.36;1757172;81;25822;-58
2022/05/08 05:19:43;;;;;;;11.20;2.98;;;;;;;12.39;47.11;101917.22;1757476;81;25779;-58
2022/05/08 05:22:10;;;;;;;12.90;2.20;;;;;;;12.41;47.07;101920.20;1757235;81;26181;-58
2022/05/08 05:24:39;;;;;;;8.83;3.65;;;;;;;12.46;46.93;101918.48;1757607;80;25719;-57
2022/05/08 05:27:06;;;;;;;9.90;2.08;;;;;;;12.46;46.98;101915.28;1757200;81;27707;-58
2022/05/08 05:29:33;;;;;;;11.03;2.67;;;;;;;12.44;46.94;101914.53;1757382;81;25761;-57
2022/05/08 05:32:00;;;;;;;12.43;2.72;;;;;;;12.47;46.87;101915.66;1762881;80;25795;-58
2022/05/08 05:34:27;;;;;;;5.28;2.17;;;;;;;12.47;46.92;101923.75;1786605;79;25750;-57
2022/05/08 05:36:54;;;;;;;7.03;2.33;;;;;;;12.47;46.90;101918.83;1786264;79;25779;-57
2022/05/08 05:39:21;;;;;;;8.20;2.08;;;;;;;12.52;46.81;101922.05;1786604;79;27626;-57
2022/05/08 05:41:48;;;;;;;9.35;2.65;;;;;;;12.61;46.77;101924.02;1782239;80;25795;-57
2022/05/08 05:44:15;;;;;;;8.20;2.58;;;;;;;12.70;46.72;101924.27;1780993;79;26020;-58
2022/05/08 05:49:27;;;;;;;15.50;2.40;;;;;;;12.74;46.68;101918.98;1782219;80;25743;-57
2022/05/08 05:51:56;;;;;;;6.72;2.15;;;;;;;12.84;46.68;101921.31;1789001;79;27541;-58
2022/05/08 05:54:24;;;;;;;8.58;2.40;;;;;;;12.95;46.50;101928.07;1789061;79;25921;-58
2022/05/08 05:56:51;;;;;;;7.42;2.35;;;;;;;13.02;46.31;101931.14;1789046;79;25671;-58
2022/05/08 05:59:18;;;;;;;10.13;2.40;;;;;;;13.09;46.33;101925.61;1789361;79;26783;-58
2022/05/08 06:01:45;;;;;;;12.43;2.50;;;;;;;13.20;46.48;101931.48;1765595;79;25483;-57
2022/05/08 06:04:12;;;;;;;11.97;2.95;;;;;;;13.31;46.47;101929.27;1738351;82;26855;-58
2022/05/08 06:06:39;;;;;;;11.60;3.37;;;;;;;13.42;46.29;101922.50;1737877;82;25711;-58
2022/05/08 06:09:07;;;;;;;5.72;2.65;;;;;;;13.55;46.18;101929.61;1738136;82;25720;-58
2022/05/08 06:11:35;;;;;;;12.30;3.20;;;;;;;13.62;46.03;101924.05;1738154;82;25958;-56
2022/05/08 06:14:03;;;;;;;6.53;2.80;;;;;;;13.74;45.93;101931.15;1738349;82;25632;-56
2022/05/08 06:16:31;;;;;;;4.62;2.35;;;;;;;13.88;45.88;101925.93;1738030;82;27660;-56
2022/05/08 06:19:00;;;;;;;9.25;2.50;;;;;;;13.99;45.68;101920.95;1737858;82;25930;-56
2022/05/08 06:21:27;;;;;;;8.83;3.05;;;;;;;14.11;45.80;101928.52;1737971;81;25435;-56
2022/05/08 06:23:54;;;;;;;15.05;2.62;;;;;;;14.24;45.73;101925.61;1738311;82;25916;-57
2022/05/08 06:26:22;;;;;;;9.08;2.87;;;;;;;14.34;45.68;101930.59;1738006;81;25717;-57
2022/05/08 06:28:49;;;;;;;11.18;2.72;;;;;;;14.41;45.57;101925.52;1737992;82;27503;-57
2022/05/08 06:31:18;;;;;;;12.25;2.87;;;;;;;14.42;45.61;101916.41;1737924;82;25749;-57
2022/05/08 06:33:46;;;;;;;5.95;3.05;;;;;;;14.47;45.33;101920.06;1743185;82;25688;-56
2022/05/08 06:36:13;;;;;;;8.23;2.85;;;;;;;14.46;45.23;101928.67;1743215;81;26176;-57
2022/05/08 06:38:40;;;;;;;6.53;2.75;;;;;;;14.46;45.33;101930.53;1743140;81;25774;-56
2022/05/08 06:41:07;;;;;;;12.73;2.90;;;;;;;14.42;45.15;101924.53;1743377;82;27592;-57
2022/05/08 06:43:35;;;;;;;8.58;2.00;;;;;;;14.40;45.30;101920.58;1744074;82;25773;-56
2022/05/08 06:46:02;;;;;;;12.23;3.27;;;;;;;14.43;45.56;101929.44;1744476;82;25815;-57
2022/05/08 06:48:29;;;;;;;10.05;2.50;;;;;;;14.44;45.52;101929.80;1744224;81;25790;-57
2022/05/08 06:50:56;;;;;;;16.10;2.80;;;;;;;14.40;45.54;101927.34;1740524;81;25765;-57
2022/05/08 06:53:23;;;;;;;20.75;2.95;;;;;;;14.46;45.54;101923.25;1738700;82;27517;-57
2022/05/08 06:55:50;;;;;;;13.60;2.87;;;;;;;14.52;45.64;101923.22;1738506;82;25803;-57
2022/05/08 06:58:16;;;;;;;12.25;3.05;;;;;;;14.58;45.65;101928.09;1738617;81;25737;-58
2022/05/08 07:03:28;;;;;;;11.75;2.40;;;;;;;14.73;45.33;101921.02;1753216;81;25820;-57
2022/05/08 07:05:56;;;;;;;9.65;2.15;;;;;;;14.83;44.81;101919.21;1753180;81;27475;-57
2022/05/08 07:08:24;;;;;;;10.38;2.27;;;;;;;14.90;44.86;101924.44;1753260;81;25422;-57
2022/05/08 07:10:51;;;;;;;11.55;2.33;;;;;;;15.01;44.95;101928.41;1753026;81;25708;-57
2022/05/08 07:13:22;;;;;;;7.83;2.42;;;;;;;15.15;44.75;101921.72;1753215;81;26609;-57
2022/05/08 07:15:46;;;;;;;12.68;2.67;;;;;;;15.24;44.24;101924.63;1753171;81;25898;-57
2022/05/08 07:18:12;;;;;;;7.97;2.37;;;;;;;15.31;44.36;101923.06;1753158;81;28322;-58
2022/05/08 07:20:39;;;;;;;6.47;2.60;;;;;;;15.37;44.37;101921.14;1752922;81;25711;-58
2022/05/08 07:23:06;;;;;;;9.23;2.33;;;;;;;15.48;44.46;101922.87;1757415;81;26454;-57
2022/05/08 07:25:33;;;;;;;8.35;2.37;;;;;;;15.57;44.43;101917.11;1757292;81;25803;-57
2022/05/08 07:28:00;;;;;;;9.30;2.77;;;;;;;15.64;44.32;101919.09;1757553;81;25430;-57
2022/05/08 07:30:27;;;;;;;5.72;2.17;;;;;;;15.68;43.69;101917.47;1757498;81;27396;-58
2022/05/08 07:32:54;;;;;;;10.23;2.45;;;;;;;15.68;43.77;101913.40;1770544;80;25746;-57
2022/05/08 07:38:07;;;;;;;11.00;2.40;;;;;;;15.79;43.93;101917.34;1780543;80;25952;-57
2022/05/08 07:40:34;;;;;;;6.97;2.20;;;;;;;15.94;43.86;101914.58;1780392;80;25499;-58
2022/05/08 07:43:01;;;;;;;7.80;2.30;;;;;;;16.04;43.28;101919.14;1780963;80;28228;-57
2022/05/08 07:45:29;;;;;;;10.65;3.22;;;;;;;16.14;42.91;101914.56;1780901;79;25755;-58
2022/05/08 07:47:56;;;;;;;11.55;2.33;;;;;;;16.24;43.08;101912.70;1780597;79;25676;-58
2022/05/08 07:50:23;;;;;;;10.50;2.52;;;;;;;16.38;42.76;101908.67;1785021;80;25803;-59
2022/05/08 07:52:50;;;;;;;32.55;14.10;;;;;;;16.57;42.59;101907.74;1788850;79;25696;-57
2022/05/08 07:55:17;;;;;;;8.60;2.58;;;;;;;16.69;42.70;101905.69;1781555;80;27507;-58
2022/05/08 07:57:44;;;;;;;10.48;2.60;;;;;;;16.84;42.48;101907.94;1775953;80;25682;-58
2022/05/08 08:00:12;;;;;;;18.27;2.83;;;;;;;17.04;42.43;101914.16;1776031;80;25700;-58
2022/05/08 08:02:42;;;;;;;11.73;3.98;;;;;;;17.20;41.98;101908.92;1776244;80;27909;-57
2022/05/08 08:05:09;;;;;;;7.67;2.35;;;;;;;17.34;41.78;101906.19;1775972;80;25615;-58
2022/05/08 08:07:36;;;;;;;7.92;2.10;;;;;;;17.50;41.70;101908.23;1776341;80;27592;-58
2022/05/08 08:10:05;;;;;;;13.18;2.42;;;;;;;17.64;41.24;101906.84;1776309;80;26111;-58
2022/05/08 08:12:32;;;;;;;10.25;2.20;;;;;;;17.73;40.70;101909.64;1776496;80;25760;-58
2022/05/08 08:15:00;;;;;;;6.50;2.35;;;;;;;17.81;40.68;101895.59;1776250;80;26463;-58
2022/05/08 08:17:30;;;;;;;19.12;3.98;;;;;;;17.92;40.81;101895.87;1776349;80;25772;-57
2022/05/08 08:19:57;;;;;;;8.38;2.22;;;;;;;18.05;40.38;101894.62;1776052;80;27473;-57
2022/05/08 08:22:24;;;;;;;11.60;3.00;;;;;;;18.19;40.05;101894.06;1776123;80;25789;-58
2022/05/08 08:24:51;;;;;;;12.80;3.12;;;;;;;18.30;40.03;101899.23;1776208;80;25860;-57
2022/05/08 08:27:19;;;;;;;19.65;2.98;;;;;;;18.44;39.30;101897.78;1776153;80;25785;-58
2022/05/08 08:29:47;;;;;;;6.85;2.25;;;;;;;18.51;39.13;101892.55;1776206;80;25766;-57
2022/05/08 08:32:15;;;;;;;12.20;3.10;;;;;;;18.62;38.19;101891.41;1765995;80;27439;-57
2022/05/08 08:34:41;;;;;;;13.32;2.50;;;;;;;18.67;38.40;101890.92;1740872;81;25741;-57
2022/05/08 08:37:08;;;;;;;9.30;2.10;;;;;;;18.77;37.94;101899.84;1740861;82;25708;-57
2022/05/08 08:39:35;;;;;;;7.10;2.20;;;;;;;18.83;37.50;101890.16;1740713;82;25797;-57
2022/05/08 08:42:28;;;;;;;10.35;2.50;;;;;;;18.94;37.31;101891.27;1747634;81;25778;-57
2022/05/08 08:47:58;;;;;;;9.25;1.92;;;;;;;19.36;37.16;101886.80;1756969;81;25743;-57
2022/05/08 08:50:29;;;;;;;11.75;2.42;;;;;;;19.57;36.25;101878.63;1778624;79;25755;-57
2022/05/08 08:52:58;;;;;;;11.15;2.90;;;;;;;19.75;34.93;101884.78;1797305;79;26436;-57
2022/05/08 08:55:26;;;;;;;9.75;2.35;;;;;;;19.91;34.75;101878.52;1797412;79;25793;-57
2022/05/08 08:57:53;;;;;;;16.27;2.60;;;;;;;20.11;33.53;101872.70;1796970;79;27696;-57
2022/05/08 09:00:21;;;;;;;5.55;2.20;;;;;;;20.28;32.61;101871.64;1797318;79;25805;-57
2022/05/08 09:02:50;;;;;;;15.48;2.45;;;;;;;20.51;31.22;101874.16;1761524;79;25842;-58
2022/05/08 09:05:17;;;;;;;3.50;2.30;;;;;;;20.69;31.61;101871.17;1756836;81;25834;-57
2022/05/08 09:07:50;;;;;;;9.68;2.47;;;;;;;20.80;29.51;101873.56;1757280;81;25737;-58
2022/05/08 09:10:23;;;;;;;4.83;2.15;;;;;;;20.90;28.42;101863.27;1757216;81;27499;-57
2022/05/08 09:13:01;;;;;;;10.63;2.08;;;;;;;21.01;28.67;101874.84;1757453;81;25659;-58
2022/05/08 09:15:36;;;;;;;6.35;1.70;;;;;;;21.29;27.75;101868.88;1757075;81;25498;-58
2022/05/08 09:18:11;;;;;;;4.55;2.15;;;;;;;21.50;27.57;101871.80;1756041;81;25956;-58
2022/05/08 09:20:51;;;;;;;4.95;2.10;;;;;;;21.84;27.51;101865.05;1757072;81;25964;-58
2022/05/08 09:23:23;;;;;;;9.65;2.33;;;;;;;22.26;25.89;101860.56;1770196;81;27500;-58
2022/05/08 09:26:03;;;;;;;4.12;1.80;;;;;;;22.78;23.38;101867.00;1770276;81;26472;-57
2022/05/08 09:28:40;;;;;;;3.72;2.02;;;;;;;23.22;22.45;101858.39;1770119;81;26347;-57
2022/05/08 09:31:15;;;;;;;4.92;2.12;;;;;;;23.75;22.62;101858.92;1770288;81;25947;-58
2022/05/08 09:33:47;;;;;;;3.30;2.27;;;;;;;24.17;20.08;101853.58;1784585;80;25778;-57
2022/05/08 09:36:25;;;;;;;5.17;2.30;;;;;;;24.53;19.96;101853.05;1786353;80;27527;-57
2022/05/08 09:38:59;;;;;;;6.03;2.67;;;;;;;24.94;19.22;101837.59;1786294;80;25746;-57
2022/05/08 09:41:30;;;;;;;5.78;2.92;;;;;;;25.35;18.84;101845.44;1786230;80;25707;-57
2022/05/08 09:44:18;;;;;;;5.37;2.02;;;;;;;25.77;18.06;101846.17;1780256;80;25844;-57
2022/05/08 09:46:48;;;;;;;9.10;2.30;;;;;;;26.14;17.51;101843.81;1780425;80;25740;-57
2022/05/08 09:49:23;;;;;;;4.10;2.00;;;;;;;26.52;16.82;101846.41;1778418;80;27574;-57
2022/05/08 09:51:53;;;;;;;7.40;2.30;;;;;;;26.79;16.15;101844.41;1738492;81;25952;-57
2022/05/08 09:54:20;;;;;;;10.20;2.55;;;;;;;27.01;15.91;101844.11;1738939;81;25760;-57
2022/05/08 09:56:49;;;;;;;7.78;3.12;;;;;;;27.20;15.29;101838.15;1738586;81;25840;-57
2022/05/08 09:59:16;;;;;;;6.80;2.40;;;;;;;27.37;14.79;101844.52;1738683;81;25796;-57
2022/05/08 10:01:43;;;;;;;11.60;2.67;;;;;;;27.67;14.48;101833.69;1744733;81;27695;-57
2022/05/08 10:04:11;;;;;;;5.12;2.60;;;;;;;27.88;12.96;101830.23;1752855;81;26372;-57
2022/05/08 10:06:40;;;;;;;6.87;2.10;;;;;;;28.13;14.87;101824.70;1753262;81;25756;-58
2022/05/08 10:14:39;;;;;;;6.25;2.25;;;;;;;29.66;13.28;101820.97;1753472;81;27637;-58
2022/05/08 10:17:07;;;;;;;5.78;2.50;;;;;;;30.02;13.55;101818.78;1753156;81;25697;-58
2022/05/08 10:19:41;;;;;;;4.87;2.10;;;;;;;30.37;13.71;101813.73;1753611;81;25839;-59
2022/05/08 10:22:16;;;;;;;6.17;2.25;;;;;;;30.79;12.77;101810.77;1753280;81;26465;-57
2022/05/08 10:24:53;;;;;;;4.30;2.02;;;;;;;31.10;12.50;101809.12;1752961;81;25908;-58
2022/05/08 10:27:28;;;;;;;5.50;2.50;;;;;;;31.28;11.76;101804.76;1753814;81;27418;-58
2022/05/08 10:30:02;;;;;;;3.80;1.70;;;;;;;31.51;12.21;101807.91;1753212;81;26490;-58
2022/05/08 10:32:35;;;;;;;4.80;1.85;;;;;;;31.86;11.52;101799.59;1748502;81;25812;-58
2022/05/08 10:35:12;;;;;;;4.33;1.62;;;;;;;32.09;11.76;101794.36;1741320;82;25806;-58
2022/05/08 10:37:47;;;;;;;8.95;1.75;;;;;;;32.44;11.19;101791.22;1741330;82;25747;-58
2022/05/08 10:40:28;;;;;;;2.65;1.82;;;;;;;32.63;11.48;101792.28;1723082;80;27600;-58
2022/05/08 10:42:59;;;;;;;4.83;1.92;;;;;;;32.98;10.92;101792.98;1749168;81;25757;-59
2022/05/08 10:45:36;;;;;;;6.55;2.22;;;;;;;33.30;11.40;101781.84;1757027;81;25738;-58
2022/05/08 10:48:16;;;;;;;8.60;2.67;;;;;;;33.53;10.25;101786.22;1757002;81;25975;-58
2022/05/08 10:50:52;;;;;;;3.52;2.37;;;;;;;33.64;10.72;101787.16;1783288;79;26364;-58
2022/05/08 10:53:36;;;;;;;5.30;1.50;;;;;;;34.01;10.48;101784.06;1797834;79;27656;-58
2022/05/08 10:56:07;;;;;;;5.60;1.82;;;;;;;34.31;10.59;101775.56;1797391;79;25786;-58
2022/05/08 10:58:40;;;;;;;2.55;1.40;;;;;;;34.57;10.16;101772.31;1797893;79;25533;-58
2022/05/08 11:01:09;;;;;;;6.67;1.85;;;;;;;34.79;10.24;101772.09;1789665;79;26562;-58
2022/05/08 11:03:36;;;;;;;5.08;1.90;;;;;;;34.98;10.13;101766.57;1757645;81;25759;-58
2022/05/08 11:06:06;;;;;;;5.20;1.65;;;;;;;35.01;9.73;101765.45;1757099;81;26778;-58
2022/05/08 11:08:35;;;;;;;3.62;1.67;;;;;;;35.00;9.73;101754.56;1757504;81;26160;-58
2022/05/08 11:11:12;;;;;;;6.03;1.77;;;;;;;35.25;10.14;101761.55;1757331;81;25878;-59
2022/05/08 11:13:49;;;;;;;4.92;2.33;;;;;;;35.50;9.64;101758.48;1757644;81;26857;-58
2022/05/08 11:16:34;;;;;;;2.85;1.87;;;;;;;35.76;10.08;101754.23;1757488;81;25498;-59
2022/05/08 11:19:04;;;;;;;4.28;1.90;;;;;;;36.27;9.36;101748.19;1757756;81;27575;-58
2022/05/08 11:21:32;;;;;;;4.45;1.82;;;;;;;36.63;9.38;101739.06;1757339;81;26157;-58
2022/05/08 11:23:59;;;;;;;5.17;1.62;;;;;;;36.84;8.89;101737.53;1757542;81;25713;-58
2022/05/08 11:26:34;;;;;;;2.27;1.57;;;;;;;36.84;9.02;101745.09;1757010;81;26572;-59
2022/05/08 11:29:02;;;;;;;4.62;1.40;;;;;;;37.01;9.22;101734.33;1757489;81;25726;-58
2022/05/08 11:31:33;;;;;;;6.55;1.70;;;;;;;37.15;8.81;101731.69;1756945;81;27485;-60
2022/05/08 11:36:46;;;;;;;4.58;1.70;;;;;;;37.05;8.60;101732.63;1720843;83;25634;-58
2022/05/08 11:39:16;;;;;;;10.48;1.22;;;;;;;37.09;9.04;101721.66;1721137;83;25816;-59
2022/05/08 11:41:51;;;;;;;5.80;1.40;;;;;;;37.41;8.79;101719.70;1721188;82;25919;-59
2022/05/08 11:44:25;;;;;;;3.52;1.20;;;;;;;37.62;8.68;101716.66;1710813;83;27443;-59
2022/05/08 11:46:57;;;;;;;4.33;1.30;;;;;;;37.94;8.68;101711.54;1710387;82;25741;-59
2022/05/08 11:49:30;;;;;;;4.58;1.80;;;;;;;38.30;8.73;101709.11;1709390;83;25877;-59
2022/05/08 11:52:03;;;;;;;2.87;1.37;;;;;;;38.59;8.53;101708.16;1670291;85;25930;-59
2022/05/08 11:54:40;;;;;;;5.33;1.40;;;;;;;38.69;8.49;101706.33;1670639;84;25678;-58
2022/05/08 11:57:17;;;;;;;2.52;1.20;;;;;;;38.95;8.24;101696.35;1670439;84;28184;-58
2022/05/08 11:59:54;;;;;;;6.80;1.52;;;;;;;39.01;7.35;101699.06;1670506;85;25926;-58
2022/05/08 12:02:38;;;;;;;7.40;1.60;;;;;;;38.65;8.05;101695.68;1676236;84;25810;-58
2022/05/08 12:05:07;;;;;;;3.67;1.47;;;;;;;38.82;7.54;101699.35;1680557;85;25815;-58
2022/05/08 12:07:41;;;;;;;6.97;1.20;;;;;;;38.93;7.92;101685.13;1680506;85;25791;-59